Time;durP1;ratioP1;P1;durP2;ratioP2;P2;SDS_P1;SDS_P2;PMS_P1;PMS_P2;Temp;Humidity;BMP_temperature;BMP_pressure;BME280_temperature;BME280_humidity;BME280_pressure;Samples;Min_cycle;Max_cycle;Signal;HPM_P1;HPM_P2
2021/05/01 00:01:03;;;;;;;25.73;23.23;;;;;;;4.80;100.00;97700.72;5055181;28;20586;-71
2021/05/01 00:03:30;;;;;;;26.20;23.60;;;;;;;4.79;100.00;97694.66;5057704;28;20222;-70
2021/05/01 00:05:59;;;;;;;27.03;24.33;;;;;;;4.78;100.00;97693.00;5047450;28;20560;-70
2021/05/01 00:08:28;;;;;;;26.93;23.93;;;;;;;4.77;100.00;97696.59;5056962;28;20720;-70
2021/05/01 00:10:56;;;;;;;25.23;22.73;;;;;;;4.77;100.00;97683.47;5056405;28;20218;-70
2021/05/01 00:13:23;;;;;;;25.60;23.03;;;;;;;4.81;100.00;97676.97;5052339;28;20230;-71
2021/05/01 00:15:50;;;;;;;24.93;22.63;;;;;;;5.02;100.00;97674.22;5052971;28;20207;-69
2021/05/01 00:18:17;;;;;;;25.03;22.63;;;;;;;4.84;100.00;97668.81;5054132;28;20202;-70
2021/05/01 00:20:44;;;;;;;25.83;23.30;;;;;;;4.88;100.00;97659.69;5058324;28;20199;-70
2021/05/01 00:23:11;;;;;;;25.23;22.73;;;;;;;4.78;100.00;97659.69;5059198;28;20863;-69
2021/05/01 00:25:39;;;;;;;25.10;22.53;;;;;;;4.88;100.00;97649.19;5060244;28;20203;-70
2021/05/01 00:28:06;;;;;;;26.00;23.33;;;;;;;4.82;100.00;97643.66;5058345;28;20199;-70
2021/05/01 00:30:33;;;;;;;24.73;22.33;;;;;;;4.87;100.00;97655.41;5057415;28;20238;-70
2021/05/01 00:33:00;;;;;;;24.70;22.33;;;;;;;4.76;100.00;97664.22;5057246;28;20246;-70
2021/05/01 00:35:27;;;;;;;24.93;22.43;;;;;;;4.84;100.00;97660.09;5056775;28;20229;-69
2021/05/01 00:37:54;;;;;;;26.07;23.27;;;;;;;5.04;100.00;97666.19;5052069;28;20207;-70
2021/05/01 00:40:21;;;;;;;25.93;23.43;;;;;;;4.97;100.00;97660.69;5056373;28;20663;-71
2021/05/01 00:42:49;;;;;;;25.67;23.13;;;;;;;5.03;100.00;97656.66;5058090;28;20260;-70
2021/05/01 00:45:16;;;;;;;25.73;23.00;;;;;;;5.11;100.00;97653.34;5052281;28;20388;-70
2021/05/01 00:47:43;;;;;;;24.60;22.20;;;;;;;4.98;100.00;97648.38;5057395;28;21210;-70
2021/05/01 00:50:12;;;;;;;23.87;21.67;;;;;;;4.93;100.00;97643.53;5060604;28;20756;-71
2021/05/01 00:52:39;;;;;;;26.90;24.17;;;;;;;5.01;100.00;97643.69;5059007;28;20223;-70
2021/05/01 00:55:08;;;;;;;24.47;22.17;;;;;;;4.93;100.00;97646.97;5059660;28;20722;-71
2021/05/01 00:57:36;;;;;;;25.37;22.87;;;;;;;4.98;100.00;97637.88;5056833;28;20203;-70
2021/05/01 01:00:07;;;;;;;25.20;22.53;;;;;;;5.13;100.00;97633.88;5056754;28;20213;-70
2021/05/01 01:02:34;;;;;;;24.23;21.63;;;;;;;5.10;100.00;97633.31;5053859;28;20231;-71
2021/05/01 01:05:01;;;;;;;24.80;22.30;;;;;;;5.04;100.00;97634.69;5058807;28;20207;-71
2021/05/01 01:07:28;;;;;;;25.60;23.03;;;;;;;5.04;100.00;97645.19;5056207;28;20222;-71
2021/05/01 01:09:55;;;;;;;25.77;23.17;;;;;;;4.93;100.00;97641.75;5054786;28;20220;-70
2021/05/01 01:12:22;;;;;;;26.03;23.33;;;;;;;5.07;100.00;97642.28;5056981;28;20658;-70
2021/05/01 01:14:49;;;;;;;26.30;23.80;;;;;;;5.11;100.00;97635.78;5053836;28;20790;-69
2021/05/01 01:17:17;;;;;;;24.47;22.17;;;;;;;5.13;100.00;97638.28;5052453;28;20245;-70
2021/05/01 01:19:45;;;;;;;24.53;22.30;;;;;;;5.08;100.00;97641.31;5054223;28;20203;-71
2021/05/01 01:22:14;;;;;;;23.00;20.70;;;;;;;5.21;100.00;97648.94;5052237;28;20638;-71
2021/05/01 01:24:42;;;;;;;25.17;22.60;;;;;;;5.05;100.00;97642.44;5057908;28;20213;-70
2021/05/01 01:27:09;;;;;;;24.37;22.10;;;;;;;5.08;100.00;97641.31;5055721;28;20206;-69
2021/05/01 01:29:39;;;;;;;24.20;21.90;;;;;;;5.19;100.00;97643.81;5057349;28;20308;-71
2021/05/01 01:32:06;;;;;;;25.37;22.80;;;;;;;5.03;100.00;97648.78;5055057;28;20215;-71
2021/05/01 01:34:33;;;;;;;23.93;21.43;;;;;;;5.06;100.00;97649.34;5058833;28;20338;-71
2021/05/01 01:37:00;;;;;;;26.40;23.87;;;;;;;5.13;100.00;97633.03;5049853;28;20672;-71
2021/05/01 01:39:28;;;;;;;24.13;21.83;;;;;;;5.05;100.00;97636.34;5059341;28;20288;-71
2021/05/01 01:41:55;;;;;;;23.90;21.53;;;;;;;5.04;100.00;97648.66;5055818;28;20704;-69
2021/05/01 01:44:22;;;;;;;23.03;20.90;;;;;;;5.04;100.00;97647.81;5057680;28;20214;-71
2021/05/01 01:46:49;;;;;;;24.33;21.93;;;;;;;5.10;100.00;97643.81;5055468;28;20210;-69
2021/05/01 01:49:16;;;;;;;23.30;21.20;;;;;;;5.11;100.00;97640.22;5052213;28;20910;-71
2021/05/01 01:51:43;;;;;;;22.23;20.13;;;;;;;5.14;100.00;97643.41;5059844;28;20689;-71
2021/05/01 01:54:10;;;;;;;23.30;21.07;;;;;;;5.17;100.00;97630.00;5056761;28;20706;-70
2021/05/01 01:56:38;;;;;;;24.00;21.47;;;;;;;5.25;100.00;97652.94;5054739;28;20206;-70
2021/05/01 01:59:06;;;;;;;23.43;21.23;;;;;;;5.13;100.00;97648.78;5053656;28;20203;-70
2021/05/01 02:01:34;;;;;;;23.83;21.60;;;;;;;5.11;100.00;97646.28;5055020;28;20195;-69
2021/05/01 02:04:01;;;;;;;23.70;21.40;;;;;;;5.09;100.00;97627.22;5052585;28;20206;-70
2021/05/01 02:06:28;;;;;;;22.83;20.67;;;;;;;5.11;100.00;97635.78;5053525;28;20643;-70
2021/05/01 02:09:05;;;;;;;24.10;21.77;;;;;;;5.06;100.00;97638.84;5052880;28;20296;-70
2021/05/01 02:11:32;;;;;;;23.63;21.43;;;;;;;5.17;100.00;97629.16;5052823;28;20219;-70
2021/05/01 02:14:00;;;;;;;23.03;20.93;;;;;;;5.11;100.00;97633.16;5055879;28;20200;-71
2021/05/01 02:16:27;;;;;;;24.20;21.80;;;;;;;5.11;100.00;97632.34;5061147;28;20441;-71
2021/05/01 02:19:01;;;;;;;23.57;21.30;;;;;;;5.12;100.00;97629.59;5056906;28;20218;-70
2021/05/01 02:21:29;;;;;;;23.50;21.23;;;;;;;5.12;100.00;97632.22;5054196;28;20277;-69
2021/05/01 02:23:56;;;;;;;23.43;21.03;;;;;;;5.12;100.00;97637.47;5055923;28;20205;-70
2021/05/01 02:26:23;;;;;;;23.43;21.10;;;;;;;5.05;100.00;97639.81;5056352;28;20208;-71
2021/05/01 02:28:50;;;;;;;22.67;20.37;;;;;;;5.01;100.00;97643.69;5054926;28;20203;-69
2021/05/01 02:31:18;;;;;;;22.30;20.10;;;;;;;5.04;100.00;97645.19;5050798;28;20218;-69
2021/05/01 02:33:45;;;;;;;22.63;20.47;;;;;;;5.13;100.00;97639.13;5056327;28;20227;-70
2021/05/01 02:36:12;;;;;;;23.70;21.40;;;;;;;5.25;100.00;97641.63;5057241;28;20679;-70
2021/05/01 02:38:39;;;;;;;24.10;21.70;;;;;;;5.10;100.00;97636.75;5058818;28;20207;-71
2021/05/01 02:41:06;;;;;;;23.17;21.07;;;;;;;5.06;100.00;97630.97;5056569;28;20210;-71
2021/05/01 02:43:33;;;;;;;22.40;20.20;;;;;;;5.20;100.00;97624.47;5058676;28;20549;-71
2021/05/01 02:46:02;;;;;;;21.27;19.27;;;;;;;5.30;100.00;97623.63;5059322;28;20207;-71
2021/05/01 02:48:30;;;;;;;20.73;18.93;;;;;;;5.20;100.00;97616.59;5054646;28;20225;-70
2021/05/01 02:50:58;;;;;;;23.47;21.17;;;;;;;5.13;100.00;97631.25;5049380;28;20230;-70
2021/05/01 02:53:25;;;;;;;22.87;20.77;;;;;;;5.15;100.00;97636.34;5054630;28;20230;-70
2021/05/01 02:55:52;;;;;;;23.87;21.57;;;;;;;5.14;100.00;97625.03;5055066;28;20629;-70
2021/05/01 02:58:19;;;;;;;22.57;20.40;;;;;;;5.13;100.00;97626.00;5057804;28;20195;-70
2021/05/01 03:00:46;;;;;;;22.80;20.67;;;;;;;5.12;100.00;97632.22;5056110;28;20199;-69
2021/05/01 03:03:13;;;;;;;22.53;20.30;;;;;;;5.06;100.00;97633.59;5058268;28;20591;-71
2021/05/01 03:05:41;;;;;;;20.93;19.03;;;;;;;5.10;100.00;97628.06;5056847;28;20203;-70
2021/05/01 03:08:08;;;;;;;23.57;21.43;;;;;;;5.13;100.00;97623.38;5055837;28;20203;-71
2021/05/01 03:10:35;;;;;;;22.43;20.37;;;;;;;5.29;100.00;97619.34;5057323;28;20253;-71
2021/05/01 03:13:02;;;;;;;23.43;21.30;;;;;;;5.25;100.00;97624.03;5056392;28;20893;-70
2021/05/01 03:15:29;;;;;;;21.70;19.50;;;;;;;5.24;100.00;97616.31;5058361;28;20207;-71
2021/05/01 03:17:56;;;;;;;22.30;20.20;;;;;;;5.29;100.00;97612.28;5054341;28;20501;-70
2021/05/01 03:20:24;;;;;;;22.50;20.30;;;;;;;5.10;100.00;97613.13;5058138;28;20620;-71
2021/05/01 03:22:52;;;;;;;24.03;21.73;;;;;;;5.10;100.00;97615.75;5055766;28;20226;-70
2021/05/01 03:25:19;;;;;;;23.47;21.27;;;;;;;5.10;100.00;97607.88;5050753;28;20600;-70
2021/05/01 03:27:47;;;;;;;23.13;21.03;;;;;;;5.06;100.00;97611.75;5051948;28;20208;-71
2021/05/01 03:30:15;;;;;;;23.47;21.03;;;;;;;5.15;100.00;97600.41;5050607;28;20223;-70
2021/05/01 03:32:43;;;;;;;24.20;21.87;;;;;;;5.09;100.00;97600.94;5040700;28;20227;-71
2021/05/01 03:35:11;;;;;;;24.03;21.73;;;;;;;5.05;100.00;97604.81;5052538;28;20207;-70
2021/05/01 03:37:38;;;;;;;24.00;21.73;;;;;;;5.08;100.00;97607.16;5057280;28;20230;-69
2021/05/01 03:40:08;;;;;;;21.93;19.77;;;;;;;5.19;100.00;97612.31;5053238;28;20211;-71
2021/05/01 03:42:35;;;;;;;22.17;19.90;;;;;;;5.23;100.00;97615.47;5053208;28;20223;-71
2021/05/01 03:45:03;;;;;;;22.70;20.60;;;;;;;5.27;100.00;97619.47;5054683;28;20206;-71
2021/05/01 03:47:30;;;;;;;21.97;19.83;;;;;;;5.32;100.00;97605.91;5055396;28;20237;-71
2021/05/01 03:49:57;;;;;;;24.20;21.90;;;;;;;5.32;100.00;97605.91;5058357;28;20238;-70
2021/05/01 03:52:24;;;;;;;22.37;20.03;;;;;;;5.26;100.00;97593.34;5053536;28;20237;-71
2021/05/01 03:54:52;;;;;;;24.53;21.97;;;;;;;5.22;100.00;97598.88;5049237;28;20204;-70
2021/05/01 03:57:19;;;;;;;22.00;19.93;;;;;;;5.18;100.00;97608.03;5056717;28;20210;-69
2021/05/01 03:59:46;;;;;;;24.17;21.70;;;;;;;5.13;100.00;97609.41;5059763;28;20211;-71
2021/05/01 04:02:13;;;;;;;24.23;21.77;;;;;;;5.15;100.00;97616.19;5056246;28;20590;-71
2021/05/01 04:04:40;;;;;;;23.63;21.43;;;;;;;5.12;100.00;97611.22;5058906;28;20308;-71
2021/05/01 04:07:07;;;;;;;23.33;21.17;;;;;;;5.20;100.00;97599.97;5058274;28;20214;-68
2021/05/01 04:09:35;;;;;;;23.20;20.97;;;;;;;5.39;100.00;97604.38;5057227;28;20195;-69
2021/05/01 04:12:02;;;;;;;22.37;20.33;;;;;;;5.58;100.00;97607.97;5058849;28;20241;-69
2021/05/01 04:14:30;;;;;;;23.13;20.83;;;;;;;5.36;100.00;97604.66;5059966;28;20437;-67
2021/05/01 04:16:57;;;;;;;24.27;21.80;;;;;;;5.26;100.00;97599.41;5054269;28;20444;-69
2021/05/01 04:19:24;;;;;;;25.00;22.60;;;;;;;5.38;100.00;97597.47;5057110;28;20210;-68
2021/05/01 04:21:51;;;;;;;24.17;21.90;;;;;;;5.34;100.00;97593.47;5058662;28;20221;-68
2021/05/01 04:24:18;;;;;;;24.50;22.10;;;;;;;5.43;100.00;97597.88;5063788;28;20199;-68
2021/05/01 04:26:45;;;;;;;23.30;21.00;;;;;;;5.37;100.00;97587.94;5061135;28;20222;-68
2021/05/01 04:29:12;;;;;;;26.27;23.60;;;;;;;5.66;100.00;97592.31;5059033;28;20456;-68
2021/05/01 04:31:40;;;;;;;24.40;22.10;;;;;;;5.54;100.00;97590.81;5054533;28;20227;-69
2021/05/01 04:34:07;;;;;;;23.90;21.60;;;;;;;5.72;100.00;97589.09;5055137;28;20641;-69
2021/05/01 04:36:34;;;;;;;24.30;21.80;;;;;;;5.87;100.00;97593.88;5059249;28;20218;-69
2021/05/01 04:39:01;;;;;;;25.37;23.07;;;;;;;5.83;100.00;97601.25;5059930;28;20218;-69
2021/05/01 04:41:28;;;;;;;23.40;21.23;;;;;;;5.62;100.00;97611.97;5053826;28;20199;-68
2021/05/01 04:43:55;;;;;;;24.63;22.33;;;;;;;5.75;100.00;97614.28;5058689;28;20234;-69
2021/05/01 04:46:22;;;;;;;25.50;22.90;;;;;;;5.80;100.00;97606.78;5057367;28;20203;-69
2021/05/01 04:48:49;;;;;;;25.10;22.83;;;;;;;5.74;100.00;97604.75;5052456;28;20684;-68
2021/05/01 04:51:18;;;;;;;24.20;22.00;;;;;;;5.62;100.00;97609.34;5055113;28;20317;-69
2021/05/01 04:53:45;;;;;;;25.27;22.87;;;;;;;5.50;100.00;97606.03;5052869;28;20750;-68
2021/05/01 04:56:12;;;;;;;25.50;23.00;;;;;;;5.40;100.00;97595.53;5059466;28;20203;-69
2021/05/01 04:58:39;;;;;;;26.13;23.57;;;;;;;5.52;100.00;97604.09;5057546;28;20208;-68
2021/05/01 05:01:06;;;;;;;24.73;22.23;;;;;;;5.70;100.00;97606.81;5055511;28;20671;-69
2021/05/01 05:03:33;;;;;;;25.37;22.87;;;;;;;5.56;100.00;97610.72;5059389;28;20238;-69
2021/05/01 05:06:01;;;;;;;24.27;21.97;;;;;;;5.52;100.00;97601.47;5058901;28;20199;-69
2021/05/01 05:08:28;;;;;;;26.07;23.53;;;;;;;5.49;100.00;97601.75;5057271;28;20274;-69
2021/05/01 05:10:55;;;;;;;24.23;22.03;;;;;;;5.48;100.00;97606.16;5058019;28;20230;-69
2021/05/01 05:13:25;;;;;;;24.03;21.87;;;;;;;5.54;100.00;97604.78;5058093;28;20227;-68
2021/05/01 05:15:52;;;;;;;26.07;23.60;;;;;;;5.58;100.00;97605.34;5060726;28;20673;-68
2021/05/01 05:18:20;;;;;;;25.70;23.13;;;;;;;5.57;100.00;97617.63;5058556;28;20290;-69
2021/05/01 05:20:47;;;;;;;27.90;25.20;;;;;;;5.51;100.00;97620.84;5054937;28;20207;-70
2021/05/01 05:23:15;;;;;;;26.30;23.63;;;;;;;5.42;100.00;97613.81;5060538;28;20233;-69
2021/05/01 05:25:42;;;;;;;24.60;22.30;;;;;;;5.45;100.00;97603.00;5061402;28;20222;-70
2021/05/01 05:28:09;;;;;;;23.87;21.67;;;;;;;5.60;100.00;97590.25;5063595;28;20221;-70
2021/05/01 05:30:36;;;;;;;25.33;22.97;;;;;;;5.74;100.00;97595.03;5063249;28;20725;-69
2021/05/01 05:33:03;;;;;;;24.63;22.27;;;;;;;5.91;100.00;97590.84;5061611;28;20219;-69
2021/05/01 05:35:30;;;;;;;26.13;23.50;;;;;;;5.96;100.00;97592.19;5061210;28;20206;-69
2021/05/01 05:37:57;;;;;;;26.83;24.27;;;;;;;5.97;100.00;97593.84;5060474;28;20230;-70
2021/05/01 05:40:25;;;;;;;26.53;23.77;;;;;;;6.12;100.00;97592.44;5062405;28;20218;-69
2021/05/01 05:42:52;;;;;;;26.33;23.87;;;;;;;6.11;100.00;97592.59;5064077;28;20227;-70
2021/05/01 05:45:24;;;;;;;24.60;22.20;;;;;;;6.18;100.00;97583.97;5061159;28;20216;-69
2021/05/01 05:47:51;;;;;;;24.47;21.97;;;;;;;6.03;100.00;97586.25;5059860;28;20227;-69
2021/05/01 05:50:19;;;;;;;23.83;21.67;;;;;;;6.02;100.00;97589.84;5060809;28;20226;-69
2021/05/01 05:52:52;;;;;;;24.90;22.50;;;;;;;6.07;100.00;97595.50;5063353;28;20223;-67
2021/05/01 05:55:19;;;;;;;24.97;22.47;;;;;;;6.20;100.00;97599.59;5062245;28;20203;-67
2021/05/01 05:57:49;;;;;;;23.60;21.40;;;;;;;6.06;100.00;97599.13;5063942;28;20621;-68
2021/05/01 06:00:17;;;;;;;24.63;22.23;;;;;;;6.06;100.00;97591.22;5063903;28;20207;-68
2021/05/01 06:02:45;;;;;;;25.67;23.17;;;;;;;6.32;100.00;97592.34;5063763;28;20226;-67
2021/05/01 06:05:15;;;;;;;23.27;20.90;;;;;;;6.34;100.00;97591.25;5059331;28;20203;-68
2021/05/01 06:07:44;;;;;;;25.67;23.33;;;;;;;6.35;100.00;97600.78;5063691;28;20198;-68
2021/05/01 06:10:13;;;;;;;25.57;23.03;;;;;;;6.53;100.00;97599.16;5062537;28;20214;-68
2021/05/01 06:12:40;;;;;;;24.97;22.77;;;;;;;6.41;100.00;97603.81;5060230;28;20659;-68
2021/05/01 06:15:10;;;;;;;25.07;22.83;;;;;;;6.37;100.00;97614.63;5060433;28;20524;-68
2021/05/01 06:17:37;;;;;;;24.53;22.23;;;;;;;6.49;100.00;97596.00;5057614;28;20207;-69
2021/05/01 06:20:06;;;;;;;26.00;23.63;;;;;;;6.63;100.00;97598.13;5060993;28;20584;-70
2021/05/01 06:22:33;;;;;;;25.10;22.70;;;;;;;6.70;100.00;97595.72;5061572;28;20233;-70
2021/05/01 06:25:01;;;;;;;25.90;23.33;;;;;;;6.91;100.00;97598.06;5052609;28;20230;-69
2021/05/01 06:27:28;;;;;;;26.87;24.40;;;;;;;7.23;100.00;97595.88;5058515;28;20203;-69
2021/05/01 06:29:55;;;;;;;23.93;21.83;;;;;;;7.29;100.00;97602.31;5059683;28;20215;-70
2021/05/01 06:32:23;;;;;;;24.13;21.90;;;;;;;7.22;100.00;97589.75;5062130;28;20223;-70
2021/05/01 06:34:52;;;;;;;24.60;22.40;;;;;;;7.23;100.00;97580.06;5061542;28;20233;-68
2021/05/01 06:37:20;;;;;;;24.03;21.77;;;;;;;7.20;100.00;97581.19;5060664;28;20667;-67
2021/05/01 06:39:57;;;;;;;25.90;23.30;;;;;;;7.48;100.00;97580.22;5083699;27;20535;-65
2021/05/01 06:42:28;;;;;;;23.43;21.23;;;;;;;7.91;94.89;97582.97;5053041;28;20219;-68
2021/05/01 06:44:57;;;;;;;21.93;19.90;;;;;;;7.89;93.13;97590.22;5052454;28;20211;-68
2021/05/01 06:47:26;;;;;;;23.53;21.33;;;;;;;7.78;95.49;97589.50;5055178;28;20651;-68
2021/05/01 06:49:57;;;;;;;25.07;22.77;;;;;;;7.88;95.62;97588.56;5055038;28;20211;-68
2021/05/01 06:52:24;;;;;;;24.47;22.17;;;;;;;7.75;96.79;97581.06;5051890;28;20761;-68
2021/05/01 06:54:52;;;;;;;25.10;22.77;;;;;;;7.77;94.91;97573.81;5056753;28;20505;-67
2021/05/01 06:57:24;;;;;;;29.63;26.43;;;;;;;7.76;93.68;97577.44;5054416;28;20579;-67
2021/05/01 06:59:54;;;;;;;24.70;22.30;;;;;;;7.63;95.89;97581.34;5058499;28;20222;-66
2021/05/01 07:02:24;;;;;;;22.83;20.83;;;;;;;7.61;96.79;97574.53;5056041;28;20234;-67
2021/05/01 07:04:52;;;;;;;23.00;20.80;;;;;;;7.87;89.87;97576.34;5051761;28;20229;-67
2021/05/01 07:07:22;;;;;;;21.77;19.77;;;;;;;7.63;90.67;97575.22;5054450;28;20203;-67
2021/05/01 07:09:49;;;;;;;22.93;20.73;;;;;;;7.80;89.88;97576.13;5055896;28;20206;-66
2021/05/01 07:12:19;;;;;;;23.20;20.90;;;;;;;7.64;91.78;97571.59;5051993;28;20233;-68
2021/05/01 07:14:47;;;;;;;22.77;20.67;;;;;;;7.97;89.62;97572.63;5055825;28;20502;-67
2021/05/01 07:17:15;;;;;;;22.13;20.00;;;;;;;8.15;89.87;97574.31;5057100;28;20209;-68
2021/05/01 07:19:44;;;;;;;23.17;21.07;;;;;;;8.42;89.15;97571.59;5056698;28;20330;-64
2021/05/01 07:22:12;;;;;;;20.73;19.03;;;;;;;8.76;87.32;97578.66;5052909;28;20245;-64
2021/05/01 07:24:39;;;;;;;21.87;19.77;;;;;;;9.22;85.49;97571.09;5058789;28;20214;-63
2021/05/01 07:27:07;;;;;;;22.27;20.07;;;;;;;9.54;83.69;97568.59;5056472;28;20527;-64
2021/05/01 07:29:37;;;;;;;22.00;19.90;;;;;;;9.42;82.58;97570.75;5055571;28;20196;-64
2021/05/01 07:32:07;;;;;;;21.80;19.70;;;;;;;9.48;80.74;97563.97;5052880;28;20308;-63
2021/05/01 07:34:35;;;;;;;21.27;19.17;;;;;;;9.30;83.30;97564.97;5057466;28;20314;-63
2021/05/01 07:37:04;;;;;;;21.37;19.37;;;;;;;9.07;82.19;97557.69;5054875;28;20218;-63
2021/05/01 07:39:32;;;;;;;20.67;18.67;;;;;;;9.05;78.64;97561.50;5048817;28;20227;-64
2021/05/01 07:42:01;;;;;;;20.07;18.13;;;;;;;8.76;79.47;97566.28;5054738;28;20745;-68
2021/05/01 07:44:31;;;;;;;21.67;19.70;;;;;;;8.77;80.24;97567.94;5051189;28;20215;-69
2021/05/01 07:46:59;;;;;;;21.27;19.20;;;;;;;8.97;79.21;97567.59;5052714;28;20203;-67
2021/05/01 07:49:28;;;;;;;21.60;19.53;;;;;;;9.13;77.83;97566.78;5047830;28;20201;-67
2021/05/01 07:51:55;;;;;;;20.50;18.67;;;;;;;9.14;76.04;97565.00;5046539;28;20766;-68
2021/05/01 07:54:23;;;;;;;21.40;19.20;;;;;;;9.00;79.05;97577.03;5043375;28;20203;-68
2021/05/01 07:56:49;;;;;;;21.00;19.13;;;;;;;8.91;79.63;97584.97;5038805;28;20212;-66
2021/05/01 07:59:16;;;;;;;22.27;20.07;;;;;;;9.41;75.57;97583.13;5039639;28;20437;-68
2021/05/01 08:01:43;;;;;;;20.97;18.90;;;;;;;9.22;78.07;97584.31;5042299;28;20217;-67
2021/05/01 08:04:11;;;;;;;20.80;18.93;;;;;;;9.56;78.29;97582.47;5040132;28;20210;-68
2021/05/01 08:06:38;;;;;;;21.77;19.60;;;;;;;9.60;77.23;97589.09;5043786;28;20394;-67
2021/05/01 08:09:06;;;;;;;21.97;20.07;;;;;;;9.27;76.51;97579.34;5041043;28;20290;-68
2021/05/01 08:11:33;;;;;;;21.93;19.87;;;;;;;9.50;75.56;97575.22;5043596;28;20208;-67
2021/05/01 08:14:00;;;;;;;24.00;21.90;;;;;;;9.77;76.63;97568.72;5041144;28;20676;-68
2021/05/01 08:16:31;;;;;;;20.83;19.00;;;;;;;9.81;75.92;97566.53;5038866;28;20450;-67
2021/05/01 08:19:00;;;;;;;21.57;19.57;;;;;;;9.93;73.82;97567.84;5038544;28;20236;-67
2021/05/01 08:21:28;;;;;;;21.17;19.27;;;;;;;9.98;73.44;97562.84;5040962;28;20295;-68
2021/05/01 08:23:59;;;;;;;21.50;19.50;;;;;;;10.24;73.75;97563.56;5041589;28;20233;-67
2021/05/01 08:26:26;;;;;;;21.30;19.33;;;;;;;10.46;72.61;97559.38;5042822;28;20214;-67
2021/05/01 08:28:52;;;;;;;21.10;19.20;;;;;;;10.47;72.99;97565.50;5040771;28;20207;-67
2021/05/01 08:31:20;;;;;;;22.40;20.43;;;;;;;10.72;72.53;97560.88;5042078;28;20206;-68
2021/05/01 08:33:47;;;;;;;21.47;19.47;;;;;;;10.66;72.45;97556.28;5042529;28;20296;-68
2021/05/01 08:36:14;;;;;;;21.97;19.87;;;;;;;10.54;73.05;97564.59;5036923;28;20298;-68
2021/05/01 08:38:41;;;;;;;20.27;18.53;;;;;;;10.66;71.71;97561.59;5037589;28;20259;-68
2021/05/01 08:41:09;;;;;;;22.27;20.37;;;;;;;10.83;71.30;97552.50;5040069;28;20675;-68
2021/05/01 08:43:36;;;;;;;21.03;19.03;;;;;;;11.05;69.63;97565.13;5037143;28;20440;-69
2021/05/01 08:46:12;;;;;;;20.83;18.87;;;;;;;10.94;70.29;97558.41;5036928;28;20342;-69
2021/05/01 08:48:42;;;;;;;21.27;19.43;;;;;;;10.78;72.36;97562.81;5039981;28;20252;-69
2021/05/01 08:51:09;;;;;;;22.07;20.10;;;;;;;10.82;71.45;97561.47;5037168;28;20208;-68
2021/05/01 08:53:36;;;;;;;24.23;21.73;;;;;;;10.88;72.01;97557.28;5041254;28;20614;-67
2021/05/01 08:56:04;;;;;;;22.90;20.80;;;;;;;10.60;72.94;97562.25;5036807;28;20554;-68
2021/05/01 08:58:32;;;;;;;23.03;20.90;;;;;;;10.70;72.05;97561.03;5038640;28;20228;-67
2021/05/01 09:01:00;;;;;;;21.63;19.50;;;;;;;10.52;72.09;97555.19;5040951;28;20210;-69
2021/05/01 09:03:27;;;;;;;23.03;20.93;;;;;;;10.65;72.48;97560.75;5003457;28;20705;-68
2021/05/01 09:05:55;;;;;;;21.57;19.57;;;;;;;10.98;70.54;97555.22;4993930;28;20216;-67
2021/05/01 09:08:24;;;;;;;21.10;19.27;;;;;;;10.92;71.82;97555.94;4996828;28;20399;-68
2021/05/01 09:10:52;;;;;;;21.23;19.33;;;;;;;10.64;73.06;97552.97;4998843;28;20263;-67
2021/05/01 09:13:21;;;;;;;21.73;19.83;;;;;;;10.93;73.17;97562.88;4994381;28;20236;-67
2021/05/01 09:16:04;;;;;;;20.57;18.57;;;;;;;11.20;69.64;97562.50;4992806;28;20233;-67
2021/05/01 09:18:45;;;;;;;20.17;18.33;;;;;;;11.20;69.70;97551.91;5001993;28;20228;-68
2021/05/01 09:21:14;;;;;;;20.77;18.90;;;;;;;12.02;68.77;97534.34;5002251;28;20303;-67
2021/05/01 09:23:41;;;;;;;19.23;17.60;;;;;;;11.98;67.07;97533.06;4999508;28;20596;-68
2021/05/01 09:26:09;;;;;;;18.73;17.23;;;;;;;11.92;67.00;97523.13;4996962;28;20209;-68
2021/05/01 09:28:40;;;;;;;17.70;16.10;;;;;;;12.07;64.53;97520.50;5001472;28;20435;-68
2021/05/01 09:31:09;;;;;;;17.80;16.30;;;;;;;12.29;65.45;97518.72;4996860;28;20212;-68
2021/05/01 09:33:37;;;;;;;17.53;15.93;;;;;;;12.39;61.85;97526.41;4996428;28;20233;-69
2021/05/01 09:36:12;;;;;;;17.77;16.27;;;;;;;12.02;62.66;97531.72;4998355;28;20692;-68
2021/05/01 09:38:41;;;;;;;19.23;17.63;;;;;;;11.28;65.89;97536.75;4992281;28;20725;-69
2021/05/01 09:41:11;;;;;;;18.80;17.10;;;;;;;11.37;65.97;97528.72;4994444;28;20213;-68
2021/05/01 09:43:54;;;;;;;18.90;17.27;;;;;;;11.40;67.33;97537.16;4993922;28;20574;-69
2021/05/01 09:46:22;;;;;;;18.17;16.57;;;;;;;11.39;67.42;97530.19;4996082;28;20208;-68
2021/05/01 09:49:07;;;;;;;17.57;15.97;;;;;;;11.54;66.02;97542.66;4994807;28;20233;-68
2021/05/01 09:51:43;;;;;;;16.13;14.73;;;;;;;11.40;63.36;97537.16;4993467;28;20216;-68
2021/05/01 09:54:11;;;;;;;17.83;16.23;;;;;;;10.98;67.00;97531.34;4998052;28;20209;-68
2021/05/01 09:56:40;;;;;;;18.00;16.50;;;;;;;10.79;67.57;97529.16;4996033;28;20673;-69
2021/05/01 09:59:08;;;;;;;17.37;15.60;;;;;;;10.88;67.11;97524.66;5001224;28;20324;-68
2021/05/01 10:01:36;;;;;;;16.27;14.87;;;;;;;10.81;67.17;97528.00;5000104;28;20205;-69
2021/05/01 10:04:15;;;;;;;18.47;16.77;;;;;;;10.39;69.28;97530.06;4998173;28;20258;-70
2021/05/01 10:06:47;;;;;;;17.57;15.97;;;;;;;10.89;67.68;97534.25;4997092;28;20209;-69
2021/05/01 10:09:21;;;;;;;16.47;14.97;;;;;;;11.22;65.57;97520.72;5002038;28;20193;-69
2021/05/01 10:11:48;;;;;;;17.67;15.97;;;;;;;11.20;66.73;97515.59;5001388;28;20215;-70
2021/05/01 10:14:16;;;;;;;17.67;16.17;;;;;;;11.30;66.97;97525.94;5000036;28;20589;-70
2021/05/01 10:16:54;;;;;;;17.90;16.30;;;;;;;11.53;66.56;97519.78;4993382;28;20220;-70
2021/05/01 10:19:22;;;;;;;17.17;15.67;;;;;;;11.40;65.89;97523.88;4999670;28;20668;-70
2021/05/01 10:21:49;;;;;;;16.30;14.83;;;;;;;11.47;66.46;97525.81;4996684;28;20209;-70
2021/05/01 10:24:15;;;;;;;17.70;16.20;;;;;;;11.45;64.91;97531.28;5001220;28;20229;-70
2021/05/01 10:26:44;;;;;;;18.17;16.57;;;;;;;11.49;64.55;97543.19;5001582;28;20209;-70
2021/05/01 10:29:24;;;;;;;16.47;15.07;;;;;;;11.34;65.80;97527.22;4999875;28;20937;-69
2021/05/01 10:31:55;;;;;;;16.33;14.90;;;;;;;11.21;67.63;97511.94;4998738;28;20228;-69
2021/05/01 10:34:25;;;;;;;18.10;16.50;;;;;;;11.68;67.00;97523.25;4996737;28;20210;-70
2021/05/01 10:36:54;;;;;;;17.93;16.37;;;;;;;11.43;64.68;97523.50;5002412;28;20563;-70
2021/05/01 10:39:21;;;;;;;16.97;15.57;;;;;;;11.61;64.78;97506.41;5000139;28;20259;-69
2021/05/01 10:41:55;;;;;;;17.30;15.80;;;;;;;11.94;64.38;97503.38;4998913;28;20205;-69
2021/05/01 10:44:23;;;;;;;18.23;16.63;;;;;;;12.44;63.42;97489.47;4999482;28;20204;-69
2021/05/01 10:46:50;;;;;;;17.07;15.53;;;;;;;12.76;62.31;97491.84;5000344;28;20239;-68
2021/05/01 10:49:17;;;;;;;18.67;17.17;;;;;;;12.66;61.45;97498.28;4998369;28;20212;-69
2021/05/01 10:51:46;;;;;;;18.20;16.70;;;;;;;12.62;62.13;97488.22;4996913;28;20205;-70
2021/05/01 10:54:15;;;;;;;17.97;16.47;;;;;;;12.43;61.19;97486.00;5000253;28;20212;-69
2021/05/01 10:56:44;;;;;;;17.23;15.73;;;;;;;13.00;58.86;97496.75;4997237;28;20703;-69
2021/05/01 10:59:13;;;;;;;18.03;16.53;;;;;;;13.10;58.08;97499.06;5001119;28;20336;-69
2021/05/01 11:01:47;;;;;;;17.20;15.70;;;;;;;12.54;59.87;97495.31;4999692;28;20663;-69
2021/05/01 11:04:18;;;;;;;17.33;15.90;;;;;;;12.64;61.18;97479.03;4997351;28;20204;-68
2021/05/01 11:06:48;;;;;;;15.87;14.57;;;;;;;13.14;56.26;97478.25;4995773;28;20208;-68
2021/05/01 11:09:26;;;;;;;15.47;14.17;;;;;;;13.11;56.99;97475.97;5000985;28;20224;-69
2021/05/01 11:11:58;;;;;;;17.07;15.67;;;;;;;13.31;56.78;97468.13;4992444;28;20232;-69
2021/05/01 11:14:28;;;;;;;17.10;15.60;;;;;;;12.63;60.48;97472.06;4997721;28;20201;-69
2021/05/01 11:17:09;;;;;;;17.73;16.13;;;;;;;12.62;61.23;97477.59;4991292;28;20209;-70
2021/05/01 11:19:42;;;;;;;17.47;15.97;;;;;;;12.85;60.41;97475.53;5000824;28;20810;-69
2021/05/01 11:22:13;;;;;;;16.83;15.43;;;;;;;12.84;60.42;97479.22;4997535;28;20224;-68
2021/05/01 11:24:41;;;;;;;17.97;16.37;;;;;;;12.69;59.34;97486.44;4996583;28;20209;-68